createdAt,value
2019-03-03T00:00:21.567Z,94.20
2019-03-03T00:02:49.593Z,93.70
2019-03-03T00:05:17.448Z,93.50
2019-03-03T00:07:46.026Z,92.80
2019-03-03T00:10:14.741Z,92.30
2019-03-03T00:12:42.570Z,91.80
2019-03-03T00:15:12.032Z,91.20
2019-03-03T00:17:40.163Z,91.40
2019-03-03T00:20:08.163Z,90.90
2019-03-03T00:22:35.731Z,91.20
2019-03-03T00:25:05.116Z,89.50
2019-03-03T00:27:33.480Z,89.00
2019-03-03T00:30:02.056Z,87.50
2019-03-03T00:32:30.877Z,86.80
2019-03-03T00:34:59.731Z,86.80
2019-03-03T00:37:39.918Z,85.90
2019-03-03T00:40:28.105Z,85.80
2019-03-03T00:43:06.991Z,85.10
2019-03-03T00:45:57.394Z,84.50
2019-03-03T00:48:42.441Z,83.50
2019-03-03T00:51:45.643Z,82.80
2019-03-03T00:54:22.219Z,81.50
2019-03-03T00:57:13.626Z,81.00
2019-03-03T01:00:06.542Z,80.40
2019-03-03T01:02:41.594Z,79.80
2019-03-03T01:05:35.798Z,78.70
2019-03-03T01:08:26.990Z,79.20
2019-03-03T01:11:09.443Z,77.70
2019-03-03T01:13:51.878Z,75.80
2019-03-03T01:16:40.435Z,75.40
2019-03-03T01:19:15.538Z,73.40
2019-03-03T01:22:05.138Z,74.10
2019-03-03T01:24:58.435Z,74.40
2019-03-03T01:27:26.607Z,72.70
2019-03-03T01:29:56.277Z,72.50
2019-03-03T01:32:24.226Z,70.90
2019-03-03T01:34:51.850Z,70.20
2019-03-03T01:37:19.149Z,68.30
2019-03-03T01:39:46.269Z,67.10
2019-03-03T01:42:13.442Z,65.00
2019-03-03T01:44:40.669Z,65.40
2019-03-03T01:47:07.946Z,65.20
2019-03-03T01:49:35.047Z,64.70
2019-03-03T01:52:02.338Z,63.10
2019-03-03T01:54:29.548Z,62.40
2019-03-03T01:56:57.186Z,61.80
2019-03-03T01:59:24.991Z,62.10
2019-03-03T02:01:52.216Z,61.70
2019-03-03T02:04:20.633Z,61.30
2019-03-03T02:06:48.834Z,62.50
2019-03-03T02:09:16.468Z,60.80
2019-03-03T02:11:44.338Z,59.50
2019-03-03T02:14:12.121Z,58.80
2019-03-03T02:16:39.636Z,57.60
2019-03-03T02:19:07.199Z,57.00
2019-03-03T02:21:35.161Z,56.20
2019-03-03T02:24:02.361Z,56.10
2019-03-03T02:26:30.058Z,55.30
2019-03-03T02:28:57.320Z,54.90
2019-03-03T02:31:24.560Z,55.30
2019-03-03T02:33:51.757Z,53.10
2019-03-03T02:36:19.064Z,53.10
2019-03-03T02:38:46.314Z,53.60
2019-03-03T02:41:13.710Z,53.60
2019-03-03T02:43:40.973Z,52.60
2019-03-03T02:46:08.306Z,52.30
2019-03-03T02:48:35.562Z,51.90
2019-03-03T02:51:02.892Z,52.50
2019-03-03T02:53:30.211Z,52.40
2019-03-03T02:55:58.048Z,52.90
2019-03-03T02:58:25.859Z,52.60
2019-03-03T03:01:00.753Z,51.00
2019-03-03T03:03:28.289Z,51.30
2019-03-03T03:06:14.895Z,50.40
2019-03-03T03:09:00.470Z,50.70
2019-03-03T03:11:39.135Z,50.90
2019-03-03T03:14:14.079Z,50.60
2019-03-03T03:16:54.494Z,51.20
2019-03-03T03:19:29.064Z,50.60
2019-03-03T03:22:16.030Z,51.10
2019-03-03T03:25:09.920Z,50.30
2019-03-03T03:27:57.952Z,50.60
2019-03-03T03:30:39.044Z,49.10
2019-03-03T03:33:18.940Z,48.60
2019-03-03T03:35:59.232Z,48.70
2019-03-03T03:38:47.110Z,49.60
2019-03-03T03:41:20.482Z,49.20
2019-03-03T03:44:14.870Z,48.70
2019-03-03T03:47:05.565Z,48.80
2019-03-03T03:49:43.109Z,48.80
2019-03-03T03:52:49.235Z,49.20
2019-03-03T03:55:37.184Z,48.20
2019-03-03T03:58:16.561Z,50.30
2019-03-03T04:01:01.003Z,50.50
2019-03-03T04:03:38.594Z,51.10
2019-03-03T04:06:26.640Z,49.70
2019-03-03T04:09:32.643Z,48.10
2019-03-03T04:12:10.113Z,48.20
2019-03-03T04:15:00.735Z,47.30
2019-03-03T04:17:40.197Z,47.70
2019-03-03T04:20:20.918Z,48.70
2019-03-03T04:22:56.844Z,48.40
2019-03-03T04:25:43.363Z,47.40
2019-03-03T04:28:36.782Z,46.50
2019-03-03T04:31:17.706Z,46.80
2019-03-03T04:33:51.135Z,47.30
2019-03-03T04:36:29.865Z,47.30
2019-03-03T04:39:17.973Z,48.20
2019-03-03T04:41:57.884Z,47.90
2019-03-03T04:44:37.698Z,47.10
2019-03-03T04:47:31.623Z,47.40
2019-03-03T04:50:18.474Z,47.50
2019-03-03T04:52:53.386Z,48.30
2019-03-03T04:55:56.762Z,49.00
2019-03-03T04:58:34.650Z,49.60
2019-03-03T05:01:18.011Z,50.20
2019-03-03T05:03:54.069Z,51.10
2019-03-03T05:06:57.613Z,52.00
2019-03-03T05:09:39.923Z,54.30
2019-03-03T05:12:32.769Z,54.50
2019-03-03T05:15:26.822Z,55.30
2019-03-03T05:17:59.890Z,56.20
2019-03-03T05:20:44.362Z,59.90
2019-03-03T05:23:12.330Z,60.30
2019-03-03T05:25:39.767Z,62.50
2019-03-03T05:28:07.288Z,63.00
2019-03-03T05:30:34.574Z,62.70
2019-03-03T05:33:02.349Z,61.40
2019-03-03T05:35:30.309Z,62.80
2019-03-03T05:37:58.615Z,62.90
2019-03-03T05:40:26.135Z,62.90
2019-03-03T05:42:54.111Z,61.70
2019-03-03T05:45:21.633Z,61.40
2019-03-03T05:47:49.494Z,63.30
2019-03-03T05:50:17.456Z,63.00
2019-03-03T05:52:44.708Z,62.00
2019-03-03T05:55:12.693Z,62.10
2019-03-03T05:57:40.261Z,63.50
2019-03-03T06:00:07.737Z,63.10
2019-03-03T06:02:35.135Z,63.30
2019-03-03T06:05:02.540Z,65.00
2019-03-03T06:07:29.835Z,65.00
2019-03-03T06:09:57.115Z,65.30
2019-03-03T06:12:24.407Z,65.00
2019-03-03T06:14:51.717Z,64.70
2019-03-03T06:17:18.980Z,64.90
2019-03-03T06:19:46.496Z,65.20
2019-03-03T06:22:13.706Z,65.10
2019-03-03T06:24:41.346Z,65.60
2019-03-03T06:27:08.606Z,66.40
2019-03-03T06:29:35.812Z,66.70
2019-03-03T06:32:03.141Z,66.40
2019-03-03T06:34:31.320Z,65.80
2019-03-03T06:36:59.619Z,67.20
2019-03-03T06:39:27.195Z,65.80
2019-03-03T06:41:55.593Z,67.10
2019-03-03T06:44:23.862Z,65.10
2019-03-03T06:46:52.268Z,65.20
2019-03-03T06:49:20.691Z,64.40
2019-03-03T06:51:48.609Z,65.90
2019-03-03T06:54:16.868Z,65.10
2019-03-03T06:56:45.688Z,67.30
2019-03-03T06:59:14.573Z,66.90
2019-03-03T07:01:43.169Z,67.60
2019-03-03T07:04:12.041Z,68.80
2019-03-03T07:06:40.918Z,70.40
2019-03-03T07:09:09.299Z,72.30
2019-03-03T07:11:36.779Z,75.00
2019-03-03T07:14:05.369Z,77.90
2019-03-03T07:16:34.106Z,82.30
2019-03-03T07:19:01.808Z,85.30
2019-03-03T07:21:30.696Z,87.60
2019-03-03T07:23:59.282Z,90.00
2019-03-03T07:26:28.171Z,89.60
2019-03-03T07:28:56.867Z,91.40
2019-03-03T07:31:24.605Z,92.30
2019-03-03T07:33:56.588Z,93.50
2019-03-03T07:36:25.694Z,95.20
2019-03-03T07:38:52.842Z,95.80
2019-03-03T07:41:21.844Z,95.30
2019-03-03T07:43:49.702Z,96.10
2019-03-03T07:46:18.575Z,96.50
2019-03-03T07:48:47.719Z,97.50
2019-03-03T07:51:16.414Z,97.50
2019-03-03T07:53:44.037Z,97.80
2019-03-03T07:56:13.766Z,97.40
2019-03-03T07:58:41.543Z,97.40
2019-03-03T08:01:10.483Z,97.80
2019-03-03T08:03:38.971Z,98.80
2019-03-03T08:06:09.712Z,98.50
2019-03-03T08:08:37.099Z,98.70
2019-03-03T08:11:04.703Z,99.40
2019-03-03T08:13:32.179Z,99.90
2019-03-03T08:16:01.175Z,99.90
2019-03-03T08:18:30.068Z,99.90
2019-03-03T08:20:58.242Z,99.90
2019-03-03T08:23:26.973Z,99.90
2019-03-03T08:25:55.998Z,99.90
2019-03-03T08:28:25.165Z,99.90
2019-03-03T08:30:53.743Z,99.90
2019-03-03T08:33:22.683Z,99.90
2019-03-03T08:35:51.570Z,99.90
2019-03-03T08:38:19.889Z,99.90
2019-03-03T08:40:48.844Z,99.90
2019-03-03T08:43:32.371Z,99.90
2019-03-03T08:46:26.776Z,99.90
2019-03-03T08:49:09.510Z,99.90
2019-03-03T08:51:43.618Z,99.90
2019-03-03T08:54:21.786Z,99.90
2019-03-03T08:57:04.444Z,99.90
2019-03-03T08:59:55.295Z,99.90
2019-03-03T09:02:33.265Z,99.90
2019-03-03T09:05:13.163Z,99.90
2019-03-03T09:08:08.664Z,99.90
2019-03-03T09:10:55.503Z,99.90
2019-03-03T09:13:43.752Z,99.90
2019-03-03T09:16:18.279Z,99.90
2019-03-03T09:19:14.919Z,99.90
2019-03-03T09:21:59.677Z,99.90
2019-03-03T09:24:48.246Z,99.90
2019-03-03T09:27:34.610Z,99.90
2019-03-03T09:30:20.618Z,99.90
2019-03-03T09:33:00.616Z,99.90
2019-03-03T09:35:55.915Z,99.90
2019-03-03T09:38:47.587Z,99.90
2019-03-03T09:41:33.542Z,99.90
2019-03-03T09:44:21.496Z,99.90
2019-03-03T09:46:59.957Z,99.90
2019-03-03T09:49:35.514Z,99.90
2019-03-03T09:52:26.740Z,99.90
2019-03-03T09:55:19.727Z,99.90
2019-03-03T09:58:25.326Z,99.90
2019-03-03T10:01:13.435Z,99.90
2019-03-03T10:04:00.449Z,99.90
2019-03-03T10:06:44.035Z,99.90
2019-03-03T10:09:17.557Z,99.90
2019-03-03T10:12:16.529Z,99.90
2019-03-03T10:15:09.244Z,99.90
2019-03-03T10:17:52.998Z,99.90
2019-03-03T10:20:48.367Z,99.90
2019-03-03T10:23:31.076Z,99.90
2019-03-03T10:26:11.715Z,99.90
2019-03-03T10:28:57.536Z,99.90
2019-03-03T10:31:51.127Z,99.90
2019-03-03T10:34:27.022Z,99.90
2019-03-03T10:37:18.295Z,99.90
2019-03-03T10:39:56.496Z,99.90
2019-03-03T10:42:40.926Z,99.90
2019-03-03T10:45:29.893Z,99.90
2019-03-03T10:48:10.239Z,99.90
2019-03-03T10:50:56.894Z,99.90
2019-03-03T10:53:45.010Z,99.90
2019-03-03T10:56:31.941Z,99.90
2019-03-03T10:59:09.294Z,99.90
2019-03-03T11:01:47.875Z,99.90
2019-03-03T11:04:43.532Z,99.90
2019-03-03T11:07:16.839Z,99.90
2019-03-03T11:10:02.274Z,99.90
2019-03-03T11:12:38.240Z,99.90
2019-03-03T11:15:26.287Z,99.90
2019-03-03T11:18:09.007Z,99.90
2019-03-03T11:20:55.814Z,99.90
2019-03-03T11:23:34.114Z,99.90
2019-03-03T11:26:19.656Z,99.90
2019-03-03T11:29:18.818Z,99.90
2019-03-03T11:31:52.606Z,99.90
2019-03-03T11:34:51.549Z,99.90
2019-03-03T11:37:41.335Z,99.90
2019-03-03T11:40:18.813Z,99.90
2019-03-03T11:43:20.794Z,99.90
2019-03-03T11:45:59.996Z,99.90
2019-03-03T11:48:45.497Z,99.90
2019-03-03T11:51:37.906Z,99.90
2019-03-03T11:54:10.806Z,99.90
2019-03-03T11:56:50.854Z,99.90
2019-03-03T11:59:35.530Z,99.90
2019-03-03T12:02:34.897Z,99.90
2019-03-03T12:05:12.843Z,99.90
2019-03-03T12:07:47.763Z,99.90
2019-03-03T12:10:41.918Z,99.90
2019-03-03T12:13:18.698Z,99.90
2019-03-03T12:16:04.065Z,99.90
2019-03-03T12:18:41.889Z,99.90
2019-03-03T12:21:17.536Z,99.90
2019-03-03T12:23:58.215Z,99.90
2019-03-03T12:26:52.087Z,99.90
2019-03-03T12:29:42.559Z,99.90
2019-03-03T12:32:39.322Z,99.90
2019-03-03T12:35:27.798Z,99.90
2019-03-03T12:38:24.839Z,99.90
2019-03-03T12:41:03.266Z,99.90
2019-03-03T12:43:38.277Z,99.90
2019-03-03T12:46:26.099Z,99.90
2019-03-03T12:49:20.034Z,99.90
2019-03-03T12:52:09.890Z,99.90
2019-03-03T12:55:15.444Z,99.90
2019-03-03T12:58:11.077Z,99.90
2019-03-03T13:01:11.387Z,99.90
2019-03-03T13:03:55.624Z,99.90
2019-03-03T13:06:43.460Z,99.90
2019-03-03T13:09:30.117Z,99.90
2019-03-03T13:12:32.747Z,99.90
2019-03-03T13:15:35.766Z,99.90
2019-03-03T13:18:18.415Z,99.90
2019-03-03T13:21:05.546Z,99.90
2019-03-03T13:23:49.139Z,99.90
2019-03-03T13:26:24.035Z,99.90
2019-03-03T13:29:11.207Z,99.90
2019-03-03T13:31:49.104Z,99.90
2019-03-03T13:34:35.415Z,99.90
2019-03-03T13:37:25.418Z,99.90
2019-03-03T13:40:28.593Z,99.90
2019-03-03T13:42:58.161Z,99.90
2019-03-03T13:45:29.364Z,99.90
2019-03-03T13:47:58.401Z,99.90
2019-03-03T13:50:27.446Z,99.90
2019-03-03T13:52:56.268Z,99.90
2019-03-03T13:55:25.533Z,99.90
2019-03-03T13:57:54.623Z,99.90
2019-03-03T14:00:23.928Z,99.90
2019-03-03T14:02:53.178Z,99.90
2019-03-03T14:05:22.823Z,99.90
2019-03-03T14:07:51.508Z,99.90
2019-03-03T14:10:20.308Z,99.90
2019-03-03T14:12:49.337Z,99.90
2019-03-03T14:15:18.520Z,99.90
2019-03-03T14:17:47.420Z,99.90
2019-03-03T14:20:21.039Z,99.90
2019-03-03T14:22:51.218Z,99.90
2019-03-03T14:25:19.752Z,99.90
2019-03-03T14:27:48.609Z,99.90
2019-03-03T14:30:19.179Z,99.90
2019-03-03T14:32:47.794Z,99.90
2019-03-03T14:35:16.398Z,99.90
2019-03-03T14:37:45.375Z,99.90
2019-03-03T14:40:15.571Z,99.90
2019-03-03T14:42:44.212Z,99.90
2019-03-03T14:45:14.464Z,99.90
2019-03-03T14:47:43.399Z,99.90
2019-03-03T14:50:13.533Z,99.90
2019-03-03T14:52:41.899Z,99.90
2019-03-03T14:55:12.118Z,99.90
2019-03-03T14:57:40.658Z,99.90
2019-03-03T15:00:27.583Z,99.90
2019-03-03T15:02:55.297Z,99.90
2019-03-03T15:05:22.486Z,99.90
2019-03-03T15:07:50.312Z,99.90
2019-03-03T15:10:18.166Z,99.90
2019-03-03T15:12:46.032Z,99.90
2019-03-03T15:15:14.109Z,99.90
2019-03-03T15:17:41.658Z,99.90
2019-03-03T15:20:09.293Z,99.90
2019-03-03T15:22:37.811Z,99.90
2019-03-03T15:25:06.977Z,99.90
2019-03-03T15:27:34.967Z,99.90
2019-03-03T15:30:04.773Z,99.90
2019-03-03T15:32:32.670Z,99.90
2019-03-03T15:35:01.419Z,99.90
2019-03-03T15:37:29.094Z,99.90
2019-03-03T15:39:57.787Z,99.90
2019-03-03T15:42:26.377Z,99.90
2019-03-03T15:44:55.502Z,99.90
2019-03-03T15:47:23.480Z,99.90
2019-03-03T15:49:52.026Z,99.90
2019-03-03T15:52:20.632Z,99.90
2019-03-03T15:54:49.146Z,99.90
2019-03-03T15:57:18.382Z,99.90
2019-03-03T15:59:45.575Z,99.90
2019-03-03T16:02:14.961Z,99.90
2019-03-03T16:04:47.308Z,99.90
2019-03-03T16:07:15.062Z,99.90
2019-03-03T16:09:42.930Z,99.90
2019-03-03T16:12:10.831Z,99.90
2019-03-03T16:14:38.246Z,99.90
2019-03-03T16:17:07.578Z,99.90
2019-03-03T16:19:35.770Z,99.90
2019-03-03T16:22:04.826Z,99.90
2019-03-03T16:24:33.136Z,99.90
2019-03-03T16:27:01.709Z,99.90
2019-03-03T16:29:29.958Z,99.90
2019-03-03T16:31:58.758Z,99.90
2019-03-03T16:34:27.584Z,99.90
2019-03-03T16:36:55.202Z,99.90
2019-03-03T16:39:23.791Z,99.90
2019-03-03T16:41:52.306Z,99.90
2019-03-03T16:44:20.337Z,99.90
2019-03-03T16:46:48.798Z,99.90
2019-03-03T16:49:17.486Z,99.90
2019-03-03T16:51:47.014Z,99.90
2019-03-03T16:54:14.575Z,99.90
2019-03-03T16:56:42.766Z,99.90
2019-03-03T16:59:11.810Z,99.90
2019-03-03T17:01:40.674Z,99.90
2019-03-03T17:04:09.415Z,99.90
2019-03-03T17:06:36.978Z,99.90
2019-03-03T17:09:05.501Z,99.90
2019-03-03T17:11:34.042Z,99.90
2019-03-03T17:14:02.533Z,99.90
2019-03-03T17:16:31.042Z,99.90
2019-03-03T17:18:59.559Z,99.60
2019-03-03T17:21:28.206Z,99.80
2019-03-03T17:23:55.575Z,98.20
2019-03-03T17:26:23.819Z,97.80
2019-03-03T17:28:51.046Z,96.30
2019-03-03T17:31:19.424Z,95.90
2019-03-03T17:33:47.766Z,94.70
2019-03-03T17:36:16.053Z,95.50
2019-03-03T17:38:44.543Z,94.20
2019-03-03T17:41:12.130Z,93.20
2019-03-03T17:43:40.339Z,92.20
2019-03-03T17:46:08.594Z,90.70
2019-03-03T17:48:36.978Z,90.70
2019-03-03T17:51:05.214Z,91.00
2019-03-03T17:53:33.652Z,90.70
2019-03-03T17:56:01.862Z,91.00
2019-03-03T17:58:30.182Z,90.20
2019-03-03T18:00:58.915Z,90.20
2019-03-03T18:03:27.223Z,90.40
2019-03-03T18:05:55.823Z,90.20
2019-03-03T18:08:24.811Z,90.10
2019-03-03T18:10:53.570Z,89.30
2019-03-03T18:13:21.267Z,87.30
2019-03-03T18:15:49.866Z,86.60
2019-03-03T18:18:18.662Z,86.00
2019-03-03T18:20:47.524Z,86.10
2019-03-03T18:23:15.102Z,84.80
2019-03-03T18:25:43.909Z,85.60
2019-03-03T18:28:12.672Z,85.40
2019-03-03T18:30:41.156Z,83.90
2019-03-03T18:33:08.438Z,83.60
2019-03-03T18:35:36.886Z,83.10
2019-03-03T18:38:05.308Z,84.10
2019-03-03T18:40:33.759Z,83.40
2019-03-03T18:43:02.218Z,84.50
2019-03-03T18:45:31.548Z,83.00
2019-03-03T18:48:00.313Z,83.40
2019-03-03T18:50:28.477Z,81.20
2019-03-03T18:52:59.667Z,82.20
2019-03-03T18:55:26.878Z,80.30
2019-03-03T18:57:54.481Z,80.20
2019-03-03T19:00:23.488Z,79.20
2019-03-03T19:02:52.325Z,77.40
2019-03-03T19:05:21.314Z,75.20
2019-03-03T19:07:50.978Z,74.70
2019-03-03T19:10:19.477Z,73.80
2019-03-03T19:12:46.946Z,70.00
2019-03-03T19:15:15.910Z,68.60
2019-03-03T19:17:44.783Z,66.70
2019-03-03T19:20:14.869Z,66.60
2019-03-03T19:22:42.310Z,66.50
2019-03-03T19:25:11.599Z,65.50
2019-03-03T19:27:40.836Z,64.00
2019-03-03T19:30:19.936Z,65.10
2019-03-03T19:32:50.305Z,64.20
2019-03-03T19:35:17.635Z,64.80
2019-03-03T19:37:44.918Z,62.70
2019-03-03T19:40:12.365Z,62.00
2019-03-03T19:42:40.014Z,61.60
2019-03-03T19:45:11.739Z,62.10
2019-03-03T19:47:39.201Z,61.20
2019-03-03T19:50:09.159Z,59.80
2019-03-03T19:52:37.491Z,59.00
2019-03-03T19:55:07.491Z,58.60
2019-03-03T19:57:35.787Z,58.70
2019-03-03T20:00:05.564Z,57.50
2019-03-03T20:02:33.163Z,56.40
2019-03-03T20:05:00.750Z,56.20
2019-03-03T20:07:29.518Z,56.20
2019-03-03T20:09:58.146Z,57.30
2019-03-03T20:12:26.715Z,57.10
2019-03-03T20:14:54.282Z,58.90
2019-03-03T20:17:22.825Z,60.00
2019-03-03T20:19:51.220Z,58.90
2019-03-03T20:22:19.630Z,58.60
2019-03-03T20:24:46.879Z,58.40
2019-03-03T20:27:15.412Z,60.10
2019-03-03T20:29:43.688Z,59.60
2019-03-03T20:32:12.137Z,61.50
2019-03-03T20:34:45.202Z,61.80
2019-03-03T20:37:12.574Z,61.90
2019-03-03T20:39:39.978Z,62.60
2019-03-03T20:42:07.279Z,64.70
2019-03-03T20:44:34.680Z,65.30
2019-03-03T20:47:01.993Z,66.50
2019-03-03T20:49:30.292Z,68.10
2019-03-03T20:51:58.730Z,69.80
2019-03-03T20:54:27.101Z,68.30
2019-03-03T20:56:55.329Z,68.60
2019-03-03T20:59:23.666Z,68.40
2019-03-03T21:01:52.014Z,68.30
2019-03-03T21:04:20.444Z,68.10
2019-03-03T21:06:47.841Z,68.50
2019-03-03T21:09:16.199Z,68.80
2019-03-03T21:11:44.576Z,69.40
2019-03-03T21:14:12.789Z,70.10
2019-03-03T21:16:41.046Z,71.50
2019-03-03T21:19:10.090Z,73.40
2019-03-03T21:21:38.910Z,72.80
2019-03-03T21:24:06.622Z,71.90
2019-03-03T21:26:35.108Z,73.20
2019-03-03T21:29:03.865Z,73.00
2019-03-03T21:31:32.562Z,73.00
2019-03-03T21:34:01.050Z,72.70
2019-03-03T21:36:30.150Z,71.50
2019-03-03T21:38:58.760Z,71.30
2019-03-03T21:41:27.373Z,71.10
2019-03-03T21:43:55.794Z,69.70
2019-03-03T21:46:23.210Z,69.50
2019-03-03T21:48:51.608Z,67.30
2019-03-03T21:51:20.335Z,67.00
2019-03-03T21:53:48.887Z,67.00
2019-03-03T21:56:18.136Z,66.80
2019-03-03T21:58:46.067Z,66.70
2019-03-03T22:01:14.913Z,65.50
2019-03-03T22:03:43.948Z,65.40
2019-03-03T22:06:11.606Z,65.30
2019-03-03T22:08:40.390Z,65.30
2019-03-03T22:11:09.378Z,64.50
2019-03-03T22:13:37.732Z,63.50
2019-03-03T22:16:06.026Z,63.40
2019-03-03T22:18:34.381Z,62.70
2019-03-03T22:21:02.675Z,62.70
2019-03-03T22:23:31.593Z,61.70
2019-03-03T22:25:58.998Z,62.10
2019-03-03T22:28:27.843Z,61.60
2019-03-03T22:30:56.310Z,60.90
2019-03-03T22:33:23.718Z,61.70
2019-03-03T22:35:51.722Z,59.80
2019-03-03T22:38:21.243Z,60.10
2019-03-03T22:40:50.447Z,58.40
2019-03-03T22:43:19.652Z,57.70
2019-03-03T22:45:47.514Z,57.30
2019-03-03T22:48:15.655Z,56.50
2019-03-03T22:50:43.340Z,56.50
2019-03-03T22:53:12.751Z,56.40
2019-03-03T22:55:40.584Z,54.60
2019-03-03T22:58:09.434Z,55.10
2019-03-03T23:01:13.711Z,54.80
2019-03-03T23:04:40.639Z,53.00
2019-03-03T23:07:25.335Z,54.00
2019-03-03T23:10:22.179Z,53.30
2019-03-03T23:13:25.191Z,52.80
2019-03-03T23:16:03.691Z,51.50
2019-03-03T23:19:04.022Z,51.30
2019-03-03T23:22:03.422Z,50.30
2019-03-03T23:24:46.438Z,50.40
2019-03-03T23:27:14.247Z,49.30
2019-03-03T23:29:41.473Z,47.30
2019-03-03T23:32:09.436Z,47.00
2019-03-03T23:34:37.014Z,47.50
2019-03-03T23:37:04.226Z,46.90
2019-03-03T23:39:31.811Z,47.10
2019-03-03T23:41:59.266Z,47.80
2019-03-03T23:44:26.891Z,46.50
2019-03-03T23:46:54.384Z,46.20
2019-03-03T23:49:22.462Z,47.00
2019-03-03T23:51:49.810Z,45.50
2019-03-03T23:54:17.334Z,46.20
2019-03-03T23:56:45.862Z,45.20
2019-03-03T23:59:14.222Z,44.00
